sensor_id;sensor_type;location;lat;lon;timestamp;temperature;humidity
34698;DHT22;61391;50.922;6.928;2023-07-20T00:02:06;19.80;99.90
34698;DHT22;61391;50.922;6.928;2023-07-20T00:14:47;19.70;99.90
34698;DHT22;61391;50.922;6.928;2023-07-20T00:17:12;19.70;99.90
34698;DHT22;61391;50.922;6.928;2023-07-20T00:19:41;19.70;99.90
34698;DHT22;61391;50.922;6.928;2023-07-20T00:25:31;19.60;99.90
34698;DHT22;61391;50.922;6.928;2023-07-20T00:27:58;19.50;99.90
34698;DHT22;61391;50.922;6.928;2023-07-20T00:30:24;19.50;99.90
34698;DHT22;61391;50.922;6.928;2023-07-20T00:33:11;19.40;99.90
34698;DHT22;61391;50.922;6.928;2023-07-20T00:35:38;19.40;99.90
34698;DHT22;61391;50.922;6.928;2023-07-20T00:38:04;19.40;99.90
34698;DHT22;61391;50.922;6.928;2023-07-20T00:40:37;19.40;99.90
34698;DHT22;61391;50.922;6.928;2023-07-20T00:46:28;19.30;99.90
34698;DHT22;61391;50.922;6.928;2023-07-20T00:48:55;19.40;99.90
34698;DHT22;61391;50.922;6.928;2023-07-20T00:51:23;19.40;99.90
34698;DHT22;61391;50.922;6.928;2023-07-20T00:53:50;19.40;99.90
34698;DHT22;61391;50.922;6.928;2023-07-20T00:56:18;19.20;99.90
34698;DHT22;61391;50.922;6.928;2023-07-20T00:58:44;19.20;99.90
34698;DHT22;61391;50.922;6.928;2023-07-20T01:01:11;19.10;99.90
34698;DHT22;61391;50.922;6.928;2023-07-20T01:03:37;19.20;99.90
34698;DHT22;61391;50.922;6.928;2023-07-20T01:09:42;19.10;99.90
34698;DHT22;61391;50.922;6.928;2023-07-20T01:12:47;19.00;99.90
34698;DHT22;61391;50.922;6.928;2023-07-20T01:15:13;19.00;99.90
34698;DHT22;61391;50.922;6.928;2023-07-20T01:17:40;19.00;99.90
34698;DHT22;61391;50.922;6.928;2023-07-20T01:20:09;19.00;99.90
34698;DHT22;61391;50.922;6.928;2023-07-20T01:23:12;19.00;99.90
34698;DHT22;61391;50.922;6.928;2023-07-20T01:31:45;19.10;99.90
34698;DHT22;61391;50.922;6.928;2023-07-20T01:34:17;19.00;99.90
34698;DHT22;61391;50.922;6.928;2023-07-20T01:36:44;18.90;99.90
34698;DHT22;61391;50.922;6.928;2023-07-20T01:39:11;18.90;99.90
34698;DHT22;61391;50.922;6.928;2023-07-20T01:41:40;18.80;99.90
34698;DHT22;61391;50.922;6.928;2023-07-20T01:44:14;18.80;99.90
34698;DHT22;61391;50.922;6.928;2023-07-20T01:46:40;18.70;99.90
34698;DHT22;61391;50.922;6.928;2023-07-20T01:49:07;18.70;99.90
34698;DHT22;61391;50.922;6.928;2023-07-20T01:51:32;18.50;99.90
34698;DHT22;61391;50.922;6.928;2023-07-20T01:53:58;18.40;99.90
34698;DHT22;61391;50.922;6.928;2023-07-20T01:59:47;18.50;99.90
34698;DHT22;61391;50.922;6.928;2023-07-20T02:02:12;18.40;99.90
34698;DHT22;61391;50.922;6.928;2023-07-20T02:04:38;18.40;99.90
34698;DHT22;61391;50.922;6.928;2023-07-20T02:07:03;18.40;99.90
34698;DHT22;61391;50.922;6.928;2023-07-20T02:09:29;18.30;99.90
34698;DHT22;61391;50.922;6.928;2023-07-20T02:11:56;18.30;99.90
34698;DHT22;61391;50.922;6.928;2023-07-20T02:14:21;18.20;99.90
34698;DHT22;61391;50.922;6.928;2023-07-20T02:16:48;18.20;99.90
34698;DHT22;61391;50.922;6.928;2023-07-20T02:19:21;18.10;99.90
34698;DHT22;61391;50.922;6.928;2023-07-20T02:21:46;18.00;99.90
34698;DHT22;61391;50.922;6.928;2023-07-20T02:27:37;17.90;99.90
34698;DHT22;61391;50.922;6.928;2023-07-20T02:30:05;18.00;99.90
34698;DHT22;61391;50.922;6.928;2023-07-20T02:32:31;18.00;99.90
34698;DHT22;61391;50.922;6.928;2023-07-20T02:34:58;17.90;99.90
34698;DHT22;61391;50.922;6.928;2023-07-20T02:37:24;18.00;99.90
34698;DHT22;61391;50.922;6.928;2023-07-20T02:39:53;18.10;99.90
34698;DHT22;61391;50.922;6.928;2023-07-20T02:45:41;18.00;99.90
34698;DHT22;61391;50.922;6.928;2023-07-20T02:48:09;17.90;99.90
34698;DHT22;61391;50.922;6.928;2023-07-20T02:50:37;17.90;99.90
34698;DHT22;61391;50.922;6.928;2023-07-20T02:53:05;17.80;99.90
34698;DHT22;61391;50.922;6.928;2023-07-20T02:55:31;17.80;99.90
34698;DHT22;61391;50.922;6.928;2023-07-20T02:57:58;17.70;99.90
34698;DHT22;61391;50.922;6.928;2023-07-20T03:00:24;17.70;99.90
34698;DHT22;61391;50.922;6.928;2023-07-20T03:06:14;17.70;99.90
34698;DHT22;61391;50.922;6.928;2023-07-20T03:08:43;17.70;99.90
34698;DHT22;61391;50.922;6.928;2023-07-20T03:11:18;17.70;99.90
34698;DHT22;61391;50.922;6.928;2023-07-20T03:13:46;17.70;99.90
34698;DHT22;61391;50.922;6.928;2023-07-20T03:22:56;17.50;99.90
34698;DHT22;61391;50.922;6.928;2023-07-20T03:28:50;17.50;99.90
34698;DHT22;61391;50.922;6.928;2023-07-20T03:31:18;17.60;99.90
34698;DHT22;61391;50.922;6.928;2023-07-20T03:37:06;17.70;99.90
34698;DHT22;61391;50.922;6.928;2023-07-20T03:39:31;17.60;99.90
34698;DHT22;61391;50.922;6.928;2023-07-20T03:41:59;17.70;99.90
34698;DHT22;61391;50.922;6.928;2023-07-20T03:44:28;17.70;99.90
34698;DHT22;61391;50.922;6.928;2023-07-20T03:50:16;17.70;99.90
34698;DHT22;61391;50.922;6.928;2023-07-20T03:52:49;17.70;99.90
34698;DHT22;61391;50.922;6.928;2023-07-20T03:55:15;17.70;99.90
34698;DHT22;61391;50.922;6.928;2023-07-20T03:57:42;17.80;99.90
34698;DHT22;61391;50.922;6.928;2023-07-20T04:00:09;17.80;99.90
34698;DHT22;61391;50.922;6.928;2023-07-20T04:02:36;17.80;99.90
34698;DHT22;61391;50.922;6.928;2023-07-20T04:05:02;18.00;99.90
34698;DHT22;61391;50.922;6.928;2023-07-20T04:10:51;18.00;99.90
34698;DHT22;61391;50.922;6.928;2023-07-20T04:13:17;18.10;99.90
34698;DHT22;61391;50.922;6.928;2023-07-20T04:15:43;18.10;99.90
34698;DHT22;61391;50.922;6.928;2023-07-20T04:18:13;18.10;99.90
34698;DHT22;61391;50.922;6.928;2023-07-20T04:20:44;18.10;99.90
34698;DHT22;61391;50.922;6.928;2023-07-20T04:26:44;18.20;99.90
34698;DHT22;61391;50.922;6.928;2023-07-20T04:29:23;18.30;99.90
34698;DHT22;61391;50.922;6.928;2023-07-20T04:31:54;18.40;99.90
34698;DHT22;61391;50.922;6.928;2023-07-20T04:37:42;18.50;99.90
34698;DHT22;61391;50.922;6.928;2023-07-20T04:40:39;18.60;99.90
34698;DHT22;61391;50.922;6.928;2023-07-20T04:43:10;18.60;99.90
34698;DHT22;61391;50.922;6.928;2023-07-20T04:45:38;18.60;99.90
34698;DHT22;61391;50.922;6.928;2023-07-20T04:51:26;18.70;99.90
34698;DHT22;61391;50.922;6.928;2023-07-20T04:57:20;18.70;99.90
34698;DHT22;61391;50.922;6.928;2023-07-20T04:59:48;18.70;99.90
34698;DHT22;61391;50.922;6.928;2023-07-20T05:05:36;19.10;99.90
34698;DHT22;61391;50.922;6.928;2023-07-20T05:11:31;19.30;99.90
34698;DHT22;61391;50.922;6.928;2023-07-20T05:14:09;19.30;99.90
34698;DHT22;61391;50.922;6.928;2023-07-20T05:16:35;19.30;99.90
34698;DHT22;61391;50.922;6.928;2023-07-20T05:19:00;19.40;99.90
34698;DHT22;61391;50.922;6.928;2023-07-20T05:21:28;19.40;99.90
34698;DHT22;61391;50.922;6.928;2023-07-20T05:23:54;19.40;99.90
34698;DHT22;61391;50.922;6.928;2023-07-20T05:29:46;19.40;99.90
34698;DHT22;61391;50.922;6.928;2023-07-20T05:32:14;19.40;99.90
34698;DHT22;61391;50.922;6.928;2023-07-20T05:34:41;19.60;99.90
34698;DHT22;61391;50.922;6.928;2023-07-20T05:37:09;19.90;99.90
34698;DHT22;61391;50.922;6.928;2023-07-20T05:39:38;19.90;99.90
34698;DHT22;61391;50.922;6.928;2023-07-20T05:42:04;20.10;99.90
34698;DHT22;61391;50.922;6.928;2023-07-20T05:44:29;20.20;99.90
34698;DHT22;61391;50.922;6.928;2023-07-20T05:46:56;20.30;99.90
34698;DHT22;61391;50.922;6.928;2023-07-20T05:49:22;20.50;99.90
34698;DHT22;61391;50.922;6.928;2023-07-20T05:51:47;20.70;99.90
34698;DHT22;61391;50.922;6.928;2023-07-20T05:54:14;20.80;99.90
34698;DHT22;61391;50.922;6.928;2023-07-20T05:56:40;20.60;99.90
34698;DHT22;61391;50.922;6.928;2023-07-20T05:59:05;20.70;99.90
34698;DHT22;61391;50.922;6.928;2023-07-20T06:01:32;20.70;99.90
34698;DHT22;61391;50.922;6.928;2023-07-20T06:03:58;20.60;99.90
34698;DHT22;61391;50.922;6.928;2023-07-20T06:06:23;20.50;99.90
34698;DHT22;61391;50.922;6.928;2023-07-20T06:08:51;20.50;99.90
34698;DHT22;61391;50.922;6.928;2023-07-20T06:11:16;20.80;99.90
34698;DHT22;61391;50.922;6.928;2023-07-20T06:13:45;20.80;99.90
34698;DHT22;61391;50.922;6.928;2023-07-20T06:16:11;20.80;99.90
34698;DHT22;61391;50.922;6.928;2023-07-20T06:21:59;21.10;99.90
34698;DHT22;61391;50.922;6.928;2023-07-20T06:24:25;21.20;99.90
34698;DHT22;61391;50.922;6.928;2023-07-20T06:26:52;21.40;99.90
34698;DHT22;61391;50.922;6.928;2023-07-20T06:29:17;21.60;99.90
34698;DHT22;61391;50.922;6.928;2023-07-20T06:31:48;21.60;99.90
34698;DHT22;61391;50.922;6.928;2023-07-20T06:34:14;21.60;99.90
34698;DHT22;61391;50.922;6.928;2023-07-20T06:36:41;21.60;99.90
34698;DHT22;61391;50.922;6.928;2023-07-20T06:39:08;21.50;99.90
34698;DHT22;61391;50.922;6.928;2023-07-20T06:41:34;21.40;99.90
34698;DHT22;61391;50.922;6.928;2023-07-20T06:44:00;21.30;99.90
34698;DHT22;61391;50.922;6.928;2023-07-20T06:46:26;21.30;99.90
34698;DHT22;61391;50.922;6.928;2023-07-20T06:48:51;21.70;99.90
34698;DHT22;61391;50.922;6.928;2023-07-20T06:51:17;21.80;99.90
34698;DHT22;61391;50.922;6.928;2023-07-20T06:53:43;22.00;99.90
34698;DHT22;61391;50.922;6.928;2023-07-20T06:56:09;22.00;99.90
34698;DHT22;61391;50.922;6.928;2023-07-20T06:58:35;22.10;99.90
34698;DHT22;61391;50.922;6.928;2023-07-20T07:01:05;22.00;99.90
34698;DHT22;61391;50.922;6.928;2023-07-20T07:03:32;22.00;99.90
34698;DHT22;61391;50.922;6.928;2023-07-20T07:05:57;21.80;99.90
34698;DHT22;61391;50.922;6.928;2023-07-20T07:08:23;21.80;99.90
34698;DHT22;61391;50.922;6.928;2023-07-20T07:10:49;21.90;99.90
34698;DHT22;61391;50.922;6.928;2023-07-20T07:13:14;22.00;99.90
34698;DHT22;61391;50.922;6.928;2023-07-20T07:15:40;22.20;99.90
34698;DHT22;61391;50.922;6.928;2023-07-20T07:18:05;22.30;99.90
34698;DHT22;61391;50.922;6.928;2023-07-20T07:20:31;22.20;99.90
34698;DHT22;61391;50.922;6.928;2023-07-20T07:26:19;22.00;99.90
34698;DHT22;61391;50.922;6.928;2023-07-20T07:28:45;22.20;99.90
34698;DHT22;61391;50.922;6.928;2023-07-20T07:31:10;22.00;99.90
34698;DHT22;61391;50.922;6.928;2023-07-20T07:33:36;21.90;99.90
34698;DHT22;61391;50.922;6.928;2023-07-20T07:36:02;22.00;99.90
34698;DHT22;61391;50.922;6.928;2023-07-20T07:38:28;22.20;99.90
34698;DHT22;61391;50.922;6.928;2023-07-20T07:40:55;22.40;99.90
34698;DHT22;61391;50.922;6.928;2023-07-20T07:43:21;22.50;99.90
34698;DHT22;61391;50.922;6.928;2023-07-20T07:45:47;22.40;99.90
34698;DHT22;61391;50.922;6.928;2023-07-20T07:48:13;22.60;99.90
34698;DHT22;61391;50.922;6.928;2023-07-20T07:50:39;23.70;99.90
34698;DHT22;61391;50.922;6.928;2023-07-20T07:53:05;25.00;99.90
34698;DHT22;61391;50.922;6.928;2023-07-20T07:55:31;26.30;99.90
34698;DHT22;61391;50.922;6.928;2023-07-20T07:57:57;27.80;99.90
34698;DHT22;61391;50.922;6.928;2023-07-20T08:00:23;29.10;99.90
34698;DHT22;61391;50.922;6.928;2023-07-20T08:02:50;29.10;99.90
34698;DHT22;61391;50.922;6.928;2023-07-20T08:05:16;28.50;99.90
34698;DHT22;61391;50.922;6.928;2023-07-20T08:07:42;28.40;99.90
34698;DHT22;61391;50.922;6.928;2023-07-20T08:10:08;28.10;99.90
34698;DHT22;61391;50.922;6.928;2023-07-20T08:12:35;28.10;99.90
34698;DHT22;61391;50.922;6.928;2023-07-20T08:15:00;27.30;99.90
34698;DHT22;61391;50.922;6.928;2023-07-20T08:17:27;26.60;99.90
34698;DHT22;61391;50.922;6.928;2023-07-20T08:19:53;27.20;99.90
34698;DHT22;61391;50.922;6.928;2023-07-20T08:22:19;28.60;99.90
34698;DHT22;61391;50.922;6.928;2023-07-20T08:24:44;29.60;99.90
34698;DHT22;61391;50.922;6.928;2023-07-20T08:27:10;30.90;99.40
34698;DHT22;61391;50.922;6.928;2023-07-20T08:29:37;31.70;95.90
34698;DHT22;61391;50.922;6.928;2023-07-20T08:32:04;30.60;95.50
34698;DHT22;61391;50.922;6.928;2023-07-20T08:34:30;29.00;97.70
34698;DHT22;61391;50.922;6.928;2023-07-20T08:36:56;27.80;99.90
34698;DHT22;61391;50.922;6.928;2023-07-20T08:39:23;27.90;99.90
34698;DHT22;61391;50.922;6.928;2023-07-20T08:41:50;28.60;99.90
34698;DHT22;61391;50.922;6.928;2023-07-20T08:44:17;28.00;99.90
34698;DHT22;61391;50.922;6.928;2023-07-20T08:46:44;27.30;99.90
34698;DHT22;61391;50.922;6.928;2023-07-20T08:49:12;27.60;99.90
34698;DHT22;61391;50.922;6.928;2023-07-20T08:51:39;28.80;99.90
34698;DHT22;61391;50.922;6.928;2023-07-20T08:54:07;29.00;99.00
34698;DHT22;61391;50.922;6.928;2023-07-20T08:56:34;29.70;96.40
34698;DHT22;61391;50.922;6.928;2023-07-20T08:59:01;29.80;95.90
34698;DHT22;61391;50.922;6.928;2023-07-20T09:01:28;29.20;95.30
34698;DHT22;61391;50.922;6.928;2023-07-20T09:03:54;28.50;96.00
34698;DHT22;61391;50.922;6.928;2023-07-20T09:06:20;27.80;97.60
34698;DHT22;61391;50.922;6.928;2023-07-20T09:08:46;27.80;98.40
34698;DHT22;61391;50.922;6.928;2023-07-20T09:11:14;28.10;99.10
34698;DHT22;61391;50.922;6.928;2023-07-20T09:13:41;28.40;97.10
34698;DHT22;61391;50.922;6.928;2023-07-20T09:16:07;28.30;97.10
34698;DHT22;61391;50.922;6.928;2023-07-20T09:18:33;28.30;97.40
34698;DHT22;61391;50.922;6.928;2023-07-20T09:21:05;28.10;97.70
34698;DHT22;61391;50.922;6.928;2023-07-20T09:23:34;28.10;96.00
34698;DHT22;61391;50.922;6.928;2023-07-20T09:26:01;28.50;95.50
34698;DHT22;61391;50.922;6.928;2023-07-20T09:28:42;28.60;94.20
34698;DHT22;61391;50.922;6.928;2023-07-20T09:31:18;28.60;94.40
34698;DHT22;61391;50.922;6.928;2023-07-20T09:33:45;29.20;94.20
34698;DHT22;61391;50.922;6.928;2023-07-20T09:36:10;29.30;92.70
34698;DHT22;61391;50.922;6.928;2023-07-20T09:38:42;29.80;91.90
34698;DHT22;61391;50.922;6.928;2023-07-20T09:41:14;29.20;92.60
34698;DHT22;61391;50.922;6.928;2023-07-20T09:43:43;29.50;93.00
34698;DHT22;61391;50.922;6.928;2023-07-20T09:46:10;29.80;92.60
34698;DHT22;61391;50.922;6.928;2023-07-20T09:48:36;29.20;92.30
34698;DHT22;61391;50.922;6.928;2023-07-20T09:51:02;28.30;92.50
34698;DHT22;61391;50.922;6.928;2023-07-20T09:53:30;27.40;93.50
34698;DHT22;61391;50.922;6.928;2023-07-20T09:55:58;27.00;94.20
34698;DHT22;61391;50.922;6.928;2023-07-20T09:58:26;26.70;95.70
34698;DHT22;61391;50.922;6.928;2023-07-20T10:00:54;27.70;96.40
34698;DHT22;61391;50.922;6.928;2023-07-20T10:03:28;28.80;94.10
34698;DHT22;61391;50.922;6.928;2023-07-20T10:06:00;29.70;92.70
34698;DHT22;61391;50.922;6.928;2023-07-20T10:08:31;30.40;91.60
34698;DHT22;61391;50.922;6.928;2023-07-20T10:11:00;31.30;89.60
34698;DHT22;61391;50.922;6.928;2023-07-20T10:13:29;32.40;85.70
34698;DHT22;61391;50.922;6.928;2023-07-20T10:16:03;33.80;82.20
34698;DHT22;61391;50.922;6.928;2023-07-20T10:21:06;34.10;78.30
34698;DHT22;61391;50.922;6.928;2023-07-20T10:23:33;33.00;77.00
34698;DHT22;61391;50.922;6.928;2023-07-20T10:26:00;32.30;75.60
34698;DHT22;61391;50.922;6.928;2023-07-20T10:28:26;31.70;75.50
34698;DHT22;61391;50.922;6.928;2023-07-20T10:30:55;31.10;77.70
34698;DHT22;61391;50.922;6.928;2023-07-20T10:33:21;31.50;78.80
34698;DHT22;61391;50.922;6.928;2023-07-20T10:36:00;31.40;78.50
34698;DHT22;61391;50.922;6.928;2023-07-20T10:38:44;30.50;80.50
34698;DHT22;61391;50.922;6.928;2023-07-20T10:41:22;30.00;81.90
34698;DHT22;61391;50.922;6.928;2023-07-20T10:43:55;29.30;82.20
34698;DHT22;61391;50.922;6.928;2023-07-20T10:49:07;28.40;85.10
34698;DHT22;61391;50.922;6.928;2023-07-20T10:51:40;28.60;85.00
34698;DHT22;61391;50.922;6.928;2023-07-20T10:57:21;28.00;87.20
34698;DHT22;61391;50.922;6.928;2023-07-20T10:59:47;27.50;88.40
34698;DHT22;61391;50.922;6.928;2023-07-20T11:02:17;27.20;90.70
34698;DHT22;61391;50.922;6.928;2023-07-20T11:04:45;26.70;88.30
34698;DHT22;61391;50.922;6.928;2023-07-20T11:10:32;26.20;90.70
34698;DHT22;61391;50.922;6.928;2023-07-20T11:13:23;26.00;91.20
34698;DHT22;61391;50.922;6.928;2023-07-20T11:16:03;25.70;92.60
34698;DHT22;61391;50.922;6.928;2023-07-20T11:18:35;25.60;93.40
34698;DHT22;61391;50.922;6.928;2023-07-20T11:21:08;25.40;93.00
34698;DHT22;61391;50.922;6.928;2023-07-20T11:26:57;25.40;92.80
34698;DHT22;61391;50.922;6.928;2023-07-20T11:29:23;25.80;92.00
34698;DHT22;61391;50.922;6.928;2023-07-20T11:31:50;25.90;91.10
34698;DHT22;61391;50.922;6.928;2023-07-20T11:34:20;26.00;91.40
34698;DHT22;61391;50.922;6.928;2023-07-20T11:36:51;25.70;91.70
34698;DHT22;61391;50.922;6.928;2023-07-20T11:39:18;25.30;93.30
34698;DHT22;61391;50.922;6.928;2023-07-20T11:41:48;25.70;93.10
34698;DHT22;61391;50.922;6.928;2023-07-20T11:44:19;26.20;93.30
34698;DHT22;61391;50.922;6.928;2023-07-20T11:46:46;27.00;92.80
34698;DHT22;61391;50.922;6.928;2023-07-20T11:49:12;27.80;91.50
34698;DHT22;61391;50.922;6.928;2023-07-20T11:51:39;28.00;90.80
34698;DHT22;61391;50.922;6.928;2023-07-20T11:54:08;28.30;89.70
34698;DHT22;61391;50.922;6.928;2023-07-20T11:56:34;28.60;88.30
34698;DHT22;61391;50.922;6.928;2023-07-20T11:59:00;29.60;86.80
34698;DHT22;61391;50.922;6.928;2023-07-20T12:01:28;30.90;83.90
34698;DHT22;61391;50.922;6.928;2023-07-20T12:04:02;31.70;80.10
34698;DHT22;61391;50.922;6.928;2023-07-20T12:06:29;33.20;77.60
34698;DHT22;61391;50.922;6.928;2023-07-20T12:08:57;33.00;74.20
34698;DHT22;61391;50.922;6.928;2023-07-20T12:11:37;33.20;74.60
34698;DHT22;61391;50.922;6.928;2023-07-20T12:14:06;32.20;72.70
34698;DHT22;61391;50.922;6.928;2023-07-20T12:16:32;31.40;73.80
34698;DHT22;61391;50.922;6.928;2023-07-20T12:19:05;29.90;75.60
34698;DHT22;61391;50.922;6.928;2023-07-20T12:21:32;29.30;79.20
34698;DHT22;61391;50.922;6.928;2023-07-20T12:23:59;28.50;81.30
34698;DHT22;61391;50.922;6.928;2023-07-20T12:26:25;27.90;82.30
34698;DHT22;61391;50.922;6.928;2023-07-20T12:28:52;27.20;84.00
34698;DHT22;61391;50.922;6.928;2023-07-20T12:31:19;26.70;86.10
34698;DHT22;61391;50.922;6.928;2023-07-20T12:33:48;26.50;87.30
34698;DHT22;61391;50.922;6.928;2023-07-20T12:36:14;26.20;88.50
34698;DHT22;61391;50.922;6.928;2023-07-20T12:38:41;26.00;90.10
34698;DHT22;61391;50.922;6.928;2023-07-20T12:41:09;25.80;89.30
34698;DHT22;61391;50.922;6.928;2023-07-20T12:43:38;25.70;90.20
34698;DHT22;61391;50.922;6.928;2023-07-20T12:46:03;25.40;90.90
34698;DHT22;61391;50.922;6.928;2023-07-20T12:48:29;25.40;91.90
34698;DHT22;61391;50.922;6.928;2023-07-20T12:54:17;25.30;91.90
34698;DHT22;61391;50.922;6.928;2023-07-20T12:56:47;25.10;92.10
34698;DHT22;61391;50.922;6.928;2023-07-20T12:59:15;25.10;92.10
34698;DHT22;61391;50.922;6.928;2023-07-20T13:01:44;25.20;93.00
34698;DHT22;61391;50.922;6.928;2023-07-20T13:04:10;25.40;92.90
34698;DHT22;61391;50.922;6.928;2023-07-20T13:06:36;25.70;91.60
34698;DHT22;61391;50.922;6.928;2023-07-20T13:09:04;25.90;91.90
34698;DHT22;61391;50.922;6.928;2023-07-20T13:11:31;26.10;90.90
34698;DHT22;61391;50.922;6.928;2023-07-20T13:13:58;25.90;90.30
34698;DHT22;61391;50.922;6.928;2023-07-20T13:16:26;26.00;89.50
34698;DHT22;61391;50.922;6.928;2023-07-20T13:18:52;26.00;90.10
34698;DHT22;61391;50.922;6.928;2023-07-20T13:21:18;26.00;89.80
34698;DHT22;61391;50.922;6.928;2023-07-20T13:23:49;26.10;88.50
34698;DHT22;61391;50.922;6.928;2023-07-20T13:26:15;26.20;90.20
34698;DHT22;61391;50.922;6.928;2023-07-20T13:28:41;26.30;89.50
34698;DHT22;61391;50.922;6.928;2023-07-20T13:31:07;26.30;90.00
34698;DHT22;61391;50.922;6.928;2023-07-20T13:33:35;26.00;88.30
34698;DHT22;61391;50.922;6.928;2023-07-20T13:36:01;25.70;89.80
34698;DHT22;61391;50.922;6.928;2023-07-20T13:38:27;25.70;90.30
34698;DHT22;61391;50.922;6.928;2023-07-20T13:40:52;25.70;90.70
34698;DHT22;61391;50.922;6.928;2023-07-20T13:43:18;25.80;90.70
34698;DHT22;61391;50.922;6.928;2023-07-20T13:45:44;25.90;91.20
34698;DHT22;61391;50.922;6.928;2023-07-20T13:48:09;26.10;91.40
34698;DHT22;61391;50.922;6.928;2023-07-20T13:50:35;26.00;90.80
34698;DHT22;61391;50.922;6.928;2023-07-20T13:53:00;26.10;90.70
34698;DHT22;61391;50.922;6.928;2023-07-20T13:55:28;26.30;89.20
34698;DHT22;61391;50.922;6.928;2023-07-20T13:57:56;26.40;88.20
34698;DHT22;61391;50.922;6.928;2023-07-20T14:00:22;26.80;87.70
34698;DHT22;61391;50.922;6.928;2023-07-20T14:02:52;27.20;87.60
34698;DHT22;61391;50.922;6.928;2023-07-20T14:05:18;27.30;86.00
34698;DHT22;61391;50.922;6.928;2023-07-20T14:07:44;27.20;85.50
34698;DHT22;61391;50.922;6.928;2023-07-20T14:10:10;27.30;84.60
34698;DHT22;61391;50.922;6.928;2023-07-20T14:12:37;27.10;84.70
34698;DHT22;61391;50.922;6.928;2023-07-20T14:15:03;26.60;85.30
34698;DHT22;61391;50.922;6.928;2023-07-20T14:17:30;26.40;84.20
34698;DHT22;61391;50.922;6.928;2023-07-20T14:19:55;26.40;88.20
34698;DHT22;61391;50.922;6.928;2023-07-20T14:22:21;26.40;85.20
34698;DHT22;61391;50.922;6.928;2023-07-20T14:24:47;26.40;82.80
34698;DHT22;61391;50.922;6.928;2023-07-20T14:27:12;26.30;82.10
34698;DHT22;61391;50.922;6.928;2023-07-20T14:29:38;26.30;83.00
34698;DHT22;61391;50.922;6.928;2023-07-20T14:32:04;26.30;83.60
34698;DHT22;61391;50.922;6.928;2023-07-20T14:34:32;26.30;83.30
34698;DHT22;61391;50.922;6.928;2023-07-20T14:37:00;26.30;83.60
34698;DHT22;61391;50.922;6.928;2023-07-20T14:39:26;26.30;81.80
34698;DHT22;61391;50.922;6.928;2023-07-20T14:41:51;26.20;80.40
34698;DHT22;61391;50.922;6.928;2023-07-20T14:44:19;26.30;81.00
34698;DHT22;61391;50.922;6.928;2023-07-20T14:46:47;25.90;81.20
34698;DHT22;61391;50.922;6.928;2023-07-20T14:49:16;26.10;81.50
34698;DHT22;61391;50.922;6.928;2023-07-20T14:51:43;26.00;80.80
34698;DHT22;61391;50.922;6.928;2023-07-20T14:54:12;26.10;80.70
34698;DHT22;61391;50.922;6.928;2023-07-20T14:56:50;26.20;80.70
34698;DHT22;61391;50.922;6.928;2023-07-20T14:59:19;26.30;80.60
34698;DHT22;61391;50.922;6.928;2023-07-20T15:02:00;26.20;79.80
34698;DHT22;61391;50.922;6.928;2023-07-20T15:04:28;26.20;80.10
34698;DHT22;61391;50.922;6.928;2023-07-20T15:06:54;26.00;79.40
34698;DHT22;61391;50.922;6.928;2023-07-20T15:09:20;26.10;80.60
34698;DHT22;61391;50.922;6.928;2023-07-20T15:11:45;26.10;80.90
34698;DHT22;61391;50.922;6.928;2023-07-20T15:14:11;25.70;81.20
34698;DHT22;61391;50.922;6.928;2023-07-20T15:20:13;25.30;82.80
34698;DHT22;61391;50.922;6.928;2023-07-20T15:22:39;25.60;83.50
34698;DHT22;61391;50.922;6.928;2023-07-20T15:28:12;26.30;84.10
34698;DHT22;61391;50.922;6.928;2023-07-20T15:30:38;26.40;84.90
34698;DHT22;61391;50.922;6.928;2023-07-20T15:33:03;26.60;85.50
34698;DHT22;61391;50.922;6.928;2023-07-20T15:35:29;26.60;85.40
34698;DHT22;61391;50.922;6.928;2023-07-20T15:37:54;26.70;85.40
34698;DHT22;61391;50.922;6.928;2023-07-20T15:40:20;26.80;85.30
34698;DHT22;61391;50.922;6.928;2023-07-20T15:42:47;26.60;85.30
34698;DHT22;61391;50.922;6.928;2023-07-20T15:45:13;26.80;84.60
34698;DHT22;61391;50.922;6.928;2023-07-20T15:47:40;26.80;85.10
34698;DHT22;61391;50.922;6.928;2023-07-20T15:50:06;26.80;85.20
34698;DHT22;61391;50.922;6.928;2023-07-20T15:52:32;26.80;85.80
34698;DHT22;61391;50.922;6.928;2023-07-20T15:54:57;26.10;88.10
34698;DHT22;61391;50.922;6.928;2023-07-20T15:57:23;26.00;88.60
34698;DHT22;61391;50.922;6.928;2023-07-20T15:59:49;25.70;89.60
34698;DHT22;61391;50.922;6.928;2023-07-20T16:02:14;25.40;89.40
34698;DHT22;61391;50.922;6.928;2023-07-20T16:04:40;24.80;90.80
34698;DHT22;61391;50.922;6.928;2023-07-20T16:07:06;24.90;92.00
34698;DHT22;61391;50.922;6.928;2023-07-20T16:09:32;25.20;91.90
34698;DHT22;61391;50.922;6.928;2023-07-20T16:12:00;25.10;90.70
34698;DHT22;61391;50.922;6.928;2023-07-20T16:14:25;25.40;92.60
34698;DHT22;61391;50.922;6.928;2023-07-20T16:20:17;25.80;90.50
34698;DHT22;61391;50.922;6.928;2023-07-20T16:22:49;26.00;90.80
34698;DHT22;61391;50.922;6.928;2023-07-20T16:25:32;25.70;90.00
34698;DHT22;61391;50.922;6.928;2023-07-20T16:28:06;25.80;90.00
34698;DHT22;61391;50.922;6.928;2023-07-20T16:33:57;25.80;88.60
34698;DHT22;61391;50.922;6.928;2023-07-20T16:36:29;25.80;87.50
34698;DHT22;61391;50.922;6.928;2023-07-20T16:38:58;25.00;88.50
34698;DHT22;61391;50.922;6.928;2023-07-20T16:44:13;25.30;90.40
34698;DHT22;61391;50.922;6.928;2023-07-20T16:46:45;25.50;89.50
34698;DHT22;61391;50.922;6.928;2023-07-20T16:49:12;25.60;90.00
34698;DHT22;61391;50.922;6.928;2023-07-20T16:51:38;25.30;87.80
34698;DHT22;61391;50.922;6.928;2023-07-20T16:54:10;25.00;89.30
34698;DHT22;61391;50.922;6.928;2023-07-20T16:56:36;25.00;90.60
34698;DHT22;61391;50.922;6.928;2023-07-20T17:02:24;25.40;89.20
34698;DHT22;61391;50.922;6.928;2023-07-20T17:04:51;25.50;87.80
34698;DHT22;61391;50.922;6.928;2023-07-20T17:07:20;25.40;87.50
34698;DHT22;61391;50.922;6.928;2023-07-20T17:09:45;25.40;88.40
34698;DHT22;61391;50.922;6.928;2023-07-20T17:12:11;25.40;89.00
34698;DHT22;61391;50.922;6.928;2023-07-20T17:14:37;25.20;88.90
34698;DHT22;61391;50.922;6.928;2023-07-20T17:17:03;25.10;90.10
34698;DHT22;61391;50.922;6.928;2023-07-20T17:22:51;25.00;90.30
34698;DHT22;61391;50.922;6.928;2023-07-20T17:25:17;25.20;90.60
34698;DHT22;61391;50.922;6.928;2023-07-20T17:27:42;25.10;90.00
34698;DHT22;61391;50.922;6.928;2023-07-20T17:30:08;24.70;90.10
34698;DHT22;61391;50.922;6.928;2023-07-20T17:35:57;24.30;91.50
34698;DHT22;61391;50.922;6.928;2023-07-20T17:38:22;24.30;91.40
34698;DHT22;61391;50.922;6.928;2023-07-20T17:40:49;24.30;92.10
34698;DHT22;61391;50.922;6.928;2023-07-20T17:43:15;24.40;91.80
34698;DHT22;61391;50.922;6.928;2023-07-20T17:45:41;24.20;91.50
34698;DHT22;61391;50.922;6.928;2023-07-20T17:48:07;24.10;92.20
34698;DHT22;61391;50.922;6.928;2023-07-20T17:50:32;24.10;92.10